Terminal Aerodrome Forecast
Issued by NWS Raleigh/Durham, NC

Current Version | Previous Version | Text Only | Print | Product List | Glossary On
Versions: 1 2 3 4 5 6 7 8 9 10 11 12 13 14 15 16 17 18 19 20 21 22 23 24 25 26 27 28 29 30 31 32 33 34 35 36 37 38 39 40 41 42 43 44 45 46 47 48 49 50
000 FTUS42 KRAH 171325 AAA TAFRDU TAF AMD KRDU 171325Z 1713/1812 05006KT P6SM FEW008 BKN025 BKN040 TEMPO 1713/1715 SCT025 BKN040 FM172000 06008KT P6SM BKN040 FM180000 03008KT P6SM SCT040 FM180700 08003KT 5SM BR BKN005=

USA.gov is the U.S. government's official web portal to all federal, state and local government web resources and services.